sensor_id;sensor_type;location;lat;lon;timestamp;pressure;altitude;pressure_sealevel;temperature;humidity
80308;BME280;69616;43.522;1.348;2023-05-10T00:01:26;100551.16;;;13.94;74.68
80308;BME280;69616;43.522;1.348;2023-05-10T00:03:52;100540.66;;;13.88;74.59
80308;BME280;69616;43.522;1.348;2023-05-10T00:06:17;100550.38;;;13.86;74.66
80308;BME280;69616;43.522;1.348;2023-05-10T00:08:43;100557.50;;;13.81;74.41
80308;BME280;69616;43.522;1.348;2023-05-10T00:11:08;100547.00;;;13.74;74.62
80308;BME280;69616;43.522;1.348;2023-05-10T00:13:34;100549.69;;;13.71;74.66
80308;BME280;69616;43.522;1.348;2023-05-10T00:15:59;100543.53;;;13.68;74.70
80308;BME280;69616;43.522;1.348;2023-05-10T00:18:24;100547.13;;;13.65;74.69
80308;BME280;69616;43.522;1.348;2023-05-10T00:20:50;100547.13;;;13.62;74.69
80308;BME280;69616;43.522;1.348;2023-05-10T00:23:16;100555.97;;;13.61;74.49
80308;BME280;69616;43.522;1.348;2023-05-10T00:25:41;100553.34;;;13.59;74.60
80308;BME280;69616;43.522;1.348;2023-05-10T00:28:06;100556.00;;;13.58;74.96
80308;BME280;69616;43.522;1.348;2023-05-10T00:30:32;100561.34;;;13.56;74.91
80308;BME280;69616;43.522;1.348;2023-05-10T00:32:57;100556.00;;;13.58;74.75
80308;BME280;69616;43.522;1.348;2023-05-10T00:35:22;100557.75;;;13.59;74.75
80308;BME280;69616;43.522;1.348;2023-05-10T00:37:48;100554.22;;;13.61;74.77
80308;BME280;69616;43.522;1.348;2023-05-10T00:40:14;100555.97;;;13.64;74.74
80308;BME280;69616;43.522;1.348;2023-05-10T00:42:39;100551.53;;;13.66;74.77
80308;BME280;69616;43.522;1.348;2023-05-10T00:45:05;100547.03;;;13.70;74.52
80308;BME280;69616;43.522;1.348;2023-05-10T00:47:32;100551.44;;;13.71;74.91
80308;BME280;69616;43.522;1.348;2023-05-10T00:49:58;100550.59;;;13.70;74.62
80308;BME280;69616;43.522;1.348;2023-05-10T00:52:26;100541.75;;;13.71;74.60
80308;BME280;69616;43.522;1.348;2023-05-10T00:54:52;100534.69;;;13.70;74.73
80308;BME280;69616;43.522;1.348;2023-05-10T00:57:17;100538.25;;;13.69;74.67
80308;BME280;69616;43.522;1.348;2023-05-10T00:59:43;100536.50;;;13.68;74.55
80308;BME280;69616;43.522;1.348;2023-05-10T01:02:08;100532.16;;;13.64;74.51
80308;BME280;69616;43.522;1.348;2023-05-10T01:04:35;100536.56;;;13.62;74.61
80308;BME280;69616;43.522;1.348;2023-05-10T01:07:00;100528.63;;;13.62;74.68
80308;BME280;69616;43.522;1.348;2023-05-10T01:09:27;100526.00;;;13.60;74.95
80308;BME280;69616;43.522;1.348;2023-05-10T01:11:53;100527.78;;;13.58;74.87
80308;BME280;69616;43.522;1.348;2023-05-10T01:14:19;100525.16;;;13.57;74.80
80308;BME280;69616;43.522;1.348;2023-05-10T01:16:47;100527.78;;;13.57;75.00
80308;BME280;69616;43.522;1.348;2023-05-10T01:19:22;100522.50;;;13.57;74.80
80308;BME280;69616;43.522;1.348;2023-05-10T01:33:25;100513.84;;;13.42;73.83
80308;BME280;69616;43.522;1.348;2023-05-10T01:36:08;100524.47;;;13.39;73.90
80308;BME280;69616;43.522;1.348;2023-05-10T01:38:50;100516.53;;;13.39;73.45
80308;BME280;69616;43.522;1.348;2023-05-10T01:41:19;100513.91;;;13.36;73.68
80308;BME280;69616;43.522;1.348;2023-05-10T01:46:31;100513.97;;;13.30;73.60
80308;BME280;69616;43.522;1.348;2023-05-10T01:49:00;100507.81;;;13.29;73.52
80308;BME280;69616;43.522;1.348;2023-05-10T01:51:32;100509.63;;;13.24;73.32
80308;BME280;69616;43.522;1.348;2023-05-10T01:54:02;100518.53;;;13.18;73.50
80308;BME280;69616;43.522;1.348;2023-05-10T01:56:31;100526.50;;;13.15;73.42
80308;BME280;69616;43.522;1.348;2023-05-10T01:58:59;100517.69;;;13.12;73.54
80308;BME280;69616;43.522;1.348;2023-05-10T02:01:26;100515.94;;;13.11;73.62
80308;BME280;69616;43.522;1.348;2023-05-10T02:03:53;100508.88;;;13.11;73.60
80308;BME280;69616;43.522;1.348;2023-05-10T02:06:22;100504.44;;;13.13;73.80
80308;BME280;69616;43.522;1.348;2023-05-10T02:08:50;100501.84;;;13.12;73.74
80308;BME280;69616;43.522;1.348;2023-05-10T02:11:17;100513.28;;;13.14;73.89
80308;BME280;69616;43.522;1.348;2023-05-10T02:13:44;100508.88;;;13.11;73.77
80308;BME280;69616;43.522;1.348;2023-05-10T02:16:12;100502.69;;;13.12;74.08
80308;BME280;69616;43.522;1.348;2023-05-10T02:18:39;100515.91;;;13.15;73.91
80308;BME280;69616;43.522;1.348;2023-05-10T02:21:06;100502.69;;;13.15;74.04
80308;BME280;69616;43.522;1.348;2023-05-10T02:23:34;100501.81;;;13.16;74.00
80308;BME280;69616;43.522;1.348;2023-05-10T02:26:01;100499.16;;;13.13;73.99
80308;BME280;69616;43.522;1.348;2023-05-10T02:28:28;100489.53;;;13.09;74.25
80308;BME280;69616;43.522;1.348;2023-05-10T02:30:55;100489.56;;;13.07;74.37
80308;BME280;69616;43.522;1.348;2023-05-10T02:33:21;100489.56;;;13.06;74.31
80308;BME280;69616;43.522;1.348;2023-05-10T02:35:48;100493.09;;;13.05;74.67
80308;BME280;69616;43.522;1.348;2023-05-10T02:38:14;100486.06;;;13.04;74.62
80308;BME280;69616;43.522;1.348;2023-05-10T02:40:41;100483.41;;;13.04;74.87
80308;BME280;69616;43.522;1.348;2023-05-10T02:43:09;100484.31;;;13.03;74.55
80308;BME280;69616;43.522;1.348;2023-05-10T02:45:37;100477.22;;;13.05;74.59
80308;BME280;69616;43.522;1.348;2023-05-10T02:48:04;100482.50;;;13.05;74.70
80308;BME280;69616;43.522;1.348;2023-05-10T02:50:32;100476.34;;;13.06;74.97
80308;BME280;69616;43.522;1.348;2023-05-10T02:53:05;100472.84;;;13.05;75.31
80308;BME280;69616;43.522;1.348;2023-05-10T02:55:36;100486.91;;;13.06;74.96
80308;BME280;69616;43.522;1.348;2023-05-10T02:58:02;100478.94;;;13.09;74.91
80308;BME280;69616;43.522;1.348;2023-05-10T03:00:28;100478.03;;;13.10;75.18
80308;BME280;69616;43.522;1.348;2023-05-10T03:02:54;100477.19;;;13.08;75.17
80308;BME280;69616;43.522;1.348;2023-05-10T03:05:20;100489.53;;;13.09;75.45
80308;BME280;69616;43.522;1.348;2023-05-10T03:07:46;100490.41;;;13.08;75.33
80308;BME280;69616;43.522;1.348;2023-05-10T03:10:12;100493.09;;;13.05;75.54
80308;BME280;69616;43.522;1.348;2023-05-10T03:15:37;100487.81;;;13.05;76.02
80308;BME280;69616;43.522;1.348;2023-05-10T03:18:21;100490.44;;;13.05;76.23
80308;BME280;69616;43.522;1.348;2023-05-10T03:20:49;100498.38;;;13.05;76.09
80308;BME280;69616;43.522;1.348;2023-05-10T03:23:22;100512.53;;;13.01;76.69
80308;BME280;69616;43.522;1.348;2023-05-10T03:25:51;100498.44;;;12.99;76.58
80308;BME280;69616;43.522;1.348;2023-05-10T03:28:18;100495.81;;;12.97;76.99
80308;BME280;69616;43.522;1.348;2023-05-10T03:30:46;100496.75;;;12.93;77.19
80308;BME280;69616;43.522;1.348;2023-05-10T03:33:11;100506.44;;;12.91;77.12
80308;BME280;69616;43.522;1.348;2023-05-10T03:35:38;100499.44;;;12.85;77.34
80308;BME280;69616;43.522;1.348;2023-05-10T03:38:04;100501.31;;;12.78;77.05
80308;BME280;69616;43.522;1.348;2023-05-10T03:40:29;100503.09;;;12.73;76.89
80308;BME280;69616;43.522;1.348;2023-05-10T03:42:56;100507.56;;;12.65;77.33
80308;BME280;69616;43.522;1.348;2023-05-10T03:45:22;100506.75;;;12.60;77.11
80308;BME280;69616;43.522;1.348;2023-05-10T03:47:47;100514.66;;;12.58;77.01
80308;BME280;69616;43.522;1.348;2023-05-10T03:50:13;100512.06;;;12.54;76.88
80308;BME280;69616;43.522;1.348;2023-05-10T03:52:38;100520.94;;;12.48;77.03
80308;BME280;69616;43.522;1.348;2023-05-10T03:55:06;100521.84;;;12.44;77.04
80308;BME280;69616;43.522;1.348;2023-05-10T03:57:33;100514.81;;;12.40;77.09
80308;BME280;69616;43.522;1.348;2023-05-10T03:59:58;100515.72;;;12.37;77.14
80308;BME280;69616;43.522;1.348;2023-05-10T04:02:23;100514.88;;;12.33;77.27
80308;BME280;69616;43.522;1.348;2023-05-10T04:04:49;100507.84;;;12.29;77.63
80308;BME280;69616;43.522;1.348;2023-05-10T04:07:14;100508.75;;;12.27;77.42
80308;BME280;69616;43.522;1.348;2023-05-10T04:09:40;100509.63;;;12.27;77.55
80308;BME280;69616;43.522;1.348;2023-05-10T04:12:06;100514.03;;;12.27;77.59
80308;BME280;69616;43.522;1.348;2023-05-10T04:14:31;100518.44;;;12.26;77.37
80308;BME280;69616;43.522;1.348;2023-05-10T04:16:57;100508.75;;;12.27;77.13
80308;BME280;69616;43.522;1.348;2023-05-10T04:19:22;100514.91;;;12.26;77.63
80308;BME280;69616;43.522;1.348;2023-05-10T04:21:48;100515.81;;;12.25;77.48
80308;BME280;69616;43.522;1.348;2023-05-10T04:24:13;100514.94;;;12.24;77.57
80308;BME280;69616;43.522;1.348;2023-05-10T04:26:38;100515.81;;;12.26;77.70
80308;BME280;69616;43.522;1.348;2023-05-10T04:29:04;100520.19;;;12.26;77.60
80308;BME280;69616;43.522;1.348;2023-05-10T04:31:30;100519.31;;;12.27;77.46
80308;BME280;69616;43.522;1.348;2023-05-10T04:33:55;100515.78;;;12.28;77.17
80308;BME280;69616;43.522;1.348;2023-05-10T04:36:20;100513.16;;;12.26;77.46
80308;BME280;69616;43.522;1.348;2023-05-10T04:38:46;100514.94;;;12.24;77.55
80308;BME280;69616;43.522;1.348;2023-05-10T04:41:11;100516.69;;;12.24;77.37
80308;BME280;69616;43.522;1.348;2023-05-10T04:43:37;100507.00;;;12.23;77.20
80308;BME280;69616;43.522;1.348;2023-05-10T04:46:04;100516.72;;;12.22;77.59
80308;BME280;69616;43.522;1.348;2023-05-10T04:48:30;100522.84;;;12.23;77.63
80308;BME280;69616;43.522;1.348;2023-05-10T04:50:55;100516.72;;;12.20;77.56
80308;BME280;69616;43.522;1.348;2023-05-10T04:53:21;100523.75;;;12.17;77.45
80308;BME280;69616;43.522;1.348;2023-05-10T04:55:46;100518.53;;;12.11;77.42
80308;BME280;69616;43.522;1.348;2023-05-10T04:58:13;100519.44;;;12.08;77.59
80308;BME280;69616;43.522;1.348;2023-05-10T05:00:38;100523.84;;;12.04;77.25
80308;BME280;69616;43.522;1.348;2023-05-10T05:03:04;100524.72;;;11.99;77.39
80308;BME280;69616;43.522;1.348;2023-05-10T05:05:30;100530.00;;;12.00;77.38
80308;BME280;69616;43.522;1.348;2023-05-10T05:07:55;100535.31;;;12.03;77.10
80308;BME280;69616;43.522;1.348;2023-05-10T05:10:21;100534.44;;;12.01;77.68
80308;BME280;69616;43.522;1.348;2023-05-10T05:12:46;100545.84;;;11.99;77.35
80308;BME280;69616;43.522;1.348;2023-05-10T05:15:12;100539.72;;;11.98;77.27
80308;BME280;69616;43.522;1.348;2023-05-10T05:17:37;100535.25;;;12.10;76.88
80308;BME280;69616;43.522;1.348;2023-05-10T05:20:03;100537.84;;;12.22;76.38
80308;BME280;69616;43.522;1.348;2023-05-10T05:22:29;100534.22;;;12.35;76.00
80308;BME280;69616;43.522;1.348;2023-05-10T05:24:55;100537.66;;;12.47;75.66
80308;BME280;69616;43.522;1.348;2023-05-10T05:27:20;100537.59;;;12.53;75.44
80308;BME280;69616;43.522;1.348;2023-05-10T05:29:49;100541.25;;;12.38;76.16
80308;BME280;69616;43.522;1.348;2023-05-10T05:32:15;100541.28;;;12.32;76.35
80308;BME280;69616;43.522;1.348;2023-05-10T05:34:40;100543.00;;;12.38;76.18
80308;BME280;69616;43.522;1.348;2023-05-10T05:37:05;100557.00;;;12.52;75.57
80308;BME280;69616;43.522;1.348;2023-05-10T05:39:31;100555.06;;;12.73;75.06
80308;BME280;69616;43.522;1.348;2023-05-10T05:41:56;100555.81;;;12.87;74.59
80308;BME280;69616;43.522;1.348;2023-05-10T05:44:22;100567.28;;;12.86;74.83
80308;BME280;69616;43.522;1.348;2023-05-10T05:46:47;100558.44;;;12.92;74.61
80308;BME280;69616;43.522;1.348;2023-05-10T05:49:12;100552.16;;;13.05;74.12
80308;BME280;69616;43.522;1.348;2023-05-10T05:51:38;100562.63;;;13.15;74.00
80308;BME280;69616;43.522;1.348;2023-05-10T05:54:03;100565.16;;;13.26;73.63
80308;BME280;69616;43.522;1.348;2023-05-10T05:56:29;100565.97;;;13.32;73.35
80308;BME280;69616;43.522;1.348;2023-05-10T05:58:55;100567.66;;;13.38;73.23
80308;BME280;69616;43.522;1.348;2023-05-10T06:01:20;100566.75;;;13.42;73.52
80308;BME280;69616;43.522;1.348;2023-05-10T06:03:46;100562.28;;;13.51;73.15
80308;BME280;69616;43.522;1.348;2023-05-10T06:06:11;100561.25;;;13.61;72.80
80308;BME280;69616;43.522;1.348;2023-05-10T06:08:37;100561.22;;;13.67;72.70
80308;BME280;69616;43.522;1.348;2023-05-10T06:11:03;100568.25;;;13.68;72.92
80308;BME280;69616;43.522;1.348;2023-05-10T06:13:29;100569.19;;;13.62;73.19
80308;BME280;69616;43.522;1.348;2023-05-10T06:15:57;100583.41;;;13.55;73.18
80308;BME280;69616;43.522;1.348;2023-05-10T06:18:23;100576.28;;;13.59;73.25
80308;BME280;69616;43.522;1.348;2023-05-10T06:20:49;100579.03;;;13.51;73.59
80308;BME280;69616;43.522;1.348;2023-05-10T06:23:14;100581.72;;;13.42;74.07
80308;BME280;69616;43.522;1.348;2023-05-10T06:25:40;100580.09;;;13.31;74.28
80308;BME280;69616;43.522;1.348;2023-05-10T06:28:05;100575.72;;;13.27;74.35
80308;BME280;69616;43.522;1.348;2023-05-10T06:30:31;100577.38;;;13.39;73.98
80308;BME280;69616;43.522;1.348;2023-05-10T06:32:56;100571.84;;;13.61;73.48
80308;BME280;69616;43.522;1.348;2023-05-10T06:35:22;100577.81;;;13.80;72.94
80308;BME280;69616;43.522;1.348;2023-05-10T06:37:48;100569.66;;;13.97;72.42
80308;BME280;69616;43.522;1.348;2023-05-10T06:40:13;100576.56;;;14.07;71.31
80308;BME280;69616;43.522;1.348;2023-05-10T06:42:38;100578.25;;;14.15;71.81
80308;BME280;69616;43.522;1.348;2023-05-10T06:45:04;100575.41;;;14.29;71.67
80308;BME280;69616;43.522;1.348;2023-05-10T06:47:30;100574.41;;;14.36;70.85
80308;BME280;69616;43.522;1.348;2023-05-10T06:49:55;100571.69;;;14.41;70.93
80308;BME280;69616;43.522;1.348;2023-05-10T06:52:21;100570.53;;;14.57;70.86
80308;BME280;69616;43.522;1.348;2023-05-10T06:54:46;100571.19;;;14.75;70.36
80308;BME280;69616;43.522;1.348;2023-05-10T06:57:12;100564.81;;;14.87;70.10
80308;BME280;69616;43.522;1.348;2023-05-10T06:59:37;100572.69;;;14.90;69.37
80308;BME280;69616;43.522;1.348;2023-05-10T07:02:03;100570.94;;;14.90;68.91
80308;BME280;69616;43.522;1.348;2023-05-10T07:04:28;100573.53;;;14.95;69.18
80308;BME280;69616;43.522;1.348;2023-05-10T07:06:53;100580.34;;;15.10;69.00
80308;BME280;69616;43.522;1.348;2023-05-10T07:09:19;100581.97;;;15.17;68.29
80308;BME280;69616;43.522;1.348;2023-05-10T07:11:44;100585.41;;;15.23;67.87
80308;BME280;69616;43.522;1.348;2023-05-10T07:14:10;100575.50;;;15.31;67.89
80308;BME280;69616;43.522;1.348;2023-05-10T07:16:35;100582.41;;;15.41;67.58
80308;BME280;69616;43.522;1.348;2023-05-10T07:19:01;100575.06;;;15.56;67.26
80308;BME280;69616;43.522;1.348;2023-05-10T07:21:27;100581.03;;;15.67;66.85
80308;BME280;69616;43.522;1.348;2023-05-10T07:23:54;100577.47;;;15.68;66.83
80308;BME280;69616;43.522;1.348;2023-05-10T07:26:19;100570.47;;;15.62;65.50
80308;BME280;69616;43.522;1.348;2023-05-10T07:28:46;100573.88;;;15.71;66.08
80308;BME280;69616;43.522;1.348;2023-05-10T07:31:12;100575.47;;;15.79;65.58
80308;BME280;69616;43.522;1.348;2023-05-10T07:33:37;100580.53;;;15.92;65.36
80308;BME280;69616;43.522;1.348;2023-05-10T07:36:03;100578.72;;;15.94;65.17
80308;BME280;69616;43.522;1.348;2023-05-10T07:38:28;100578.72;;;15.94;65.24
80308;BME280;69616;43.522;1.348;2023-05-10T07:40:53;100580.66;;;15.86;64.69
80308;BME280;69616;43.522;1.348;2023-05-10T07:43:19;100578.84;;;15.88;65.30
80308;BME280;69616;43.522;1.348;2023-05-10T07:45:44;100578.41;;;16.10;65.25
80308;BME280;69616;43.522;1.348;2023-05-10T07:48:09;100567.38;;;16.28;64.86
80308;BME280;69616;43.522;1.348;2023-05-10T07:50:35;100566.41;;;16.31;64.27
80308;BME280;69616;43.522;1.348;2023-05-10T07:53:00;100557.50;;;16.33;63.03
80308;BME280;69616;43.522;1.348;2023-05-10T07:55:25;100565.97;;;16.49;63.48
80308;BME280;69616;43.522;1.348;2023-05-10T07:57:51;100565.63;;;16.65;61.86
80308;BME280;69616;43.522;1.348;2023-05-10T08:00:18;100564.19;;;16.86;62.00
80308;BME280;69616;43.522;1.348;2023-05-10T08:02:44;100561.47;;;16.89;61.70
80308;BME280;69616;43.522;1.348;2023-05-10T08:05:09;100564.03;;;16.92;61.40
80308;BME280;69616;43.522;1.348;2023-05-10T08:07:35;100555.91;;;17.00;60.33
80308;BME280;69616;43.522;1.348;2023-05-10T08:10:02;100555.91;;;16.99;60.59
80308;BME280;69616;43.522;1.348;2023-05-10T08:12:27;100556.69;;;17.04;60.27
80308;BME280;69616;43.522;1.348;2023-05-10T08:14:52;100556.69;;;17.04;59.63
80308;BME280;69616;43.522;1.348;2023-05-10T08:17:18;100556.44;;;17.13;59.90
80308;BME280;69616;43.522;1.348;2023-05-10T08:19:43;100557.34;;;17.12;58.00
80308;BME280;69616;43.522;1.348;2023-05-10T08:22:08;100559.06;;;17.15;58.33
80308;BME280;69616;43.522;1.348;2023-05-10T08:24:34;100556.19;;;17.22;58.89
80308;BME280;69616;43.522;1.348;2023-05-10T08:27:06;100553.09;;;17.38;58.07
80308;BME280;69616;43.522;1.348;2023-05-10T08:29:31;100549.22;;;17.50;57.20
80308;BME280;69616;43.522;1.348;2023-05-10T08:31:56;100546.44;;;17.55;57.13
80308;BME280;69616;43.522;1.348;2023-05-10T08:34:22;100551.50;;;17.64;57.00
80308;BME280;69616;43.522;1.348;2023-05-10T08:36:47;100549.31;;;17.78;55.86
80308;BME280;69616;43.522;1.348;2023-05-10T08:39:12;100549.75;;;17.93;55.48
80308;BME280;69616;43.522;1.348;2023-05-10T08:41:39;100549.53;;;18.01;54.64
80308;BME280;69616;43.522;1.348;2023-05-10T08:44:07;100546.75;;;18.05;54.30
80308;BME280;69616;43.522;1.348;2023-05-10T08:46:33;100543.97;;;18.10;54.63
80308;BME280;69616;43.522;1.348;2023-05-10T08:49:02;100545.50;;;18.17;54.12
80308;BME280;69616;43.522;1.348;2023-05-10T08:51:32;100539.13;;;18.23;53.19
80308;BME280;69616;43.522;1.348;2023-05-10T08:54:01;100546.47;;;18.43;53.40
80308;BME280;69616;43.522;1.348;2023-05-10T08:56:27;100542.69;;;18.50;53.20
80308;BME280;69616;43.522;1.348;2023-05-10T08:58:53;100548.19;;;18.46;53.20
80308;BME280;69616;43.522;1.348;2023-05-10T09:01:19;100550.63;;;18.52;52.98
80308;BME280;69616;43.522;1.348;2023-05-10T09:03:46;100549.13;;;18.43;52.18
80308;BME280;69616;43.522;1.348;2023-05-10T09:06:13;100546.84;;;18.31;52.83
80308;BME280;69616;43.522;1.348;2023-05-10T09:08:40;100547.69;;;18.33;51.79
80308;BME280;69616;43.522;1.348;2023-05-10T09:11:07;100548.56;;;18.33;52.00
80308;BME280;69616;43.522;1.348;2023-05-10T09:13:35;100544.34;;;18.26;51.50
80308;BME280;69616;43.522;1.348;2023-05-10T09:16:00;100538.81;;;18.32;50.89
80308;BME280;69616;43.522;1.348;2023-05-10T09:18:26;100533.84;;;18.48;51.38
80308;BME280;69616;43.522;1.348;2023-05-10T09:20:51;100526.09;;;18.68;51.82
80308;BME280;69616;43.522;1.348;2023-05-10T09:23:17;100528.28;;;18.56;51.64
80308;BME280;69616;43.522;1.348;2023-05-10T09:25:42;100528.25;;;18.29;51.90
80308;BME280;69616;43.522;1.348;2023-05-10T09:28:08;100531.75;;;18.31;52.45
80308;BME280;69616;43.522;1.348;2023-05-10T09:30:35;100529.88;;;18.62;51.67
80308;BME280;69616;43.522;1.348;2023-05-10T09:33:01;100529.75;;;18.92;51.51
80308;BME280;69616;43.522;1.348;2023-05-10T09:35:28;100520.59;;;19.01;51.42
80308;BME280;69616;43.522;1.348;2023-05-10T09:37:56;100531.81;;;18.84;50.29
80308;BME280;69616;43.522;1.348;2023-05-10T09:40:23;100534.06;;;18.42;50.86
80308;BME280;69616;43.522;1.348;2023-05-10T09:43:04;100525.47;;;18.04;51.43
80308;BME280;69616;43.522;1.348;2023-05-10T09:45:32;100526.78;;;17.89;52.39
80308;BME280;69616;43.522;1.348;2023-05-10T09:47:58;100526.03;;;17.85;52.40
80308;BME280;69616;43.522;1.348;2023-05-10T09:50:25;100528.22;;;18.02;51.75
80308;BME280;69616;43.522;1.348;2023-05-10T09:53:01;100520.75;;;18.14;51.02
80308;BME280;69616;43.522;1.348;2023-05-10T09:55:45;100521.41;;;18.49;50.75
80308;BME280;69616;43.522;1.348;2023-05-10T09:58:12;100523.19;;;18.75;50.00
80308;BME280;69616;43.522;1.348;2023-05-10T10:00:39;100521.50;;;18.73;50.10
80308;BME280;69616;43.522;1.348;2023-05-10T10:03:06;100516.78;;;18.54;50.06
80308;BME280;69616;43.522;1.348;2023-05-10T10:05:35;100521.47;;;18.19;48.87
80308;BME280;69616;43.522;1.348;2023-05-10T10:08:03;100512.53;;;17.91;50.46
80308;BME280;69616;43.522;1.348;2023-05-10T10:10:28;100518.81;;;17.89;50.37
80308;BME280;69616;43.522;1.348;2023-05-10T10:12:55;100514.13;;;17.97;50.13
80308;BME280;69616;43.522;1.348;2023-05-10T10:15:21;100511.47;;;17.97;49.59
80308;BME280;69616;43.522;1.348;2023-05-10T10:17:48;100507.00;;;17.98;50.10
80308;BME280;69616;43.522;1.348;2023-05-10T10:20:14;100510.72;;;18.22;49.87
80308;BME280;69616;43.522;1.348;2023-05-10T10:22:40;100499.81;;;18.57;49.26
80308;BME280;69616;43.522;1.348;2023-05-10T10:25:07;100503.03;;;18.93;49.48
80308;BME280;69616;43.522;1.348;2023-05-10T10:30:21;100491.59;;;19.39;46.25
80308;BME280;69616;43.522;1.348;2023-05-10T10:35:53;100486.44;;;19.82;46.81
80308;BME280;69616;43.522;1.348;2023-05-10T10:38:20;100486.47;;;20.04;45.31
80308;BME280;69616;43.522;1.348;2023-05-10T10:40:45;100477.41;;;20.08;45.47
80308;BME280;69616;43.522;1.348;2023-05-10T10:43:37;100480.03;;;20.10;45.88
80308;BME280;69616;43.522;1.348;2023-05-10T10:48:35;100465.53;;;20.38;46.87
80308;BME280;69616;43.522;1.348;2023-05-10T10:51:01;100470.16;;;20.55;47.10
80308;BME280;69616;43.522;1.348;2023-05-10T10:53:27;100471.81;;;20.80;47.48
80308;BME280;69616;43.522;1.348;2023-05-10T10:56:06;100465.69;;;20.97;46.88
80308;BME280;69616;43.522;1.348;2023-05-10T10:58:39;100464.97;;;20.93;46.60
80308;BME280;69616;43.522;1.348;2023-05-10T11:01:13;100467.75;;;20.70;44.56
80308;BME280;69616;43.522;1.348;2023-05-10T11:03:39;100461.44;;;20.50;44.71
80308;BME280;69616;43.522;1.348;2023-05-10T11:06:04;100456.94;;;20.30;44.05
80308;BME280;69616;43.522;1.348;2023-05-10T11:08:30;100454.63;;;20.43;45.08
80308;BME280;69616;43.522;1.348;2023-05-10T11:13:38;100455.94;;;20.32;44.32
80308;BME280;69616;43.522;1.348;2023-05-10T11:19:04;100471.13;;;19.63;45.84
80308;BME280;69616;43.522;1.348;2023-05-10T11:21:32;100468.41;;;19.41;47.04
80308;BME280;69616;43.522;1.348;2023-05-10T11:23:59;100463.69;;;19.24;46.88
80308;BME280;69616;43.522;1.348;2023-05-10T11:26:30;100468.06;;;19.01;46.96
80308;BME280;69616;43.522;1.348;2023-05-10T11:28:56;100479.03;;;18.67;46.77
80308;BME280;69616;43.522;1.348;2023-05-10T11:31:23;100474.88;;;18.31;47.40
80308;BME280;69616;43.522;1.348;2023-05-10T11:33:56;100481.88;;;18.06;48.23
80308;BME280;69616;43.522;1.348;2023-05-10T11:36:24;100477.72;;;17.96;47.31
80308;BME280;69616;43.522;1.348;2023-05-10T11:38:51;100474.00;;;18.03;48.33
80308;BME280;69616;43.522;1.348;2023-05-10T11:41:18;100475.09;;;18.25;48.11
80308;BME280;69616;43.522;1.348;2023-05-10T11:43:46;100465.69;;;18.40;46.74
80308;BME280;69616;43.522;1.348;2023-05-10T11:46:13;100460.47;;;18.63;46.94
80308;BME280;69616;43.522;1.348;2023-05-10T11:48:39;100461.94;;;18.98;45.66
80308;BME280;69616;43.522;1.348;2023-05-10T11:51:05;100459.22;;;19.25;44.98
80308;BME280;69616;43.522;1.348;2023-05-10T11:53:32;100465.22;;;19.31;44.51
80308;BME280;69616;43.522;1.348;2023-05-10T11:56:08;100454.06;;;19.20;44.79
80308;BME280;69616;43.522;1.348;2023-05-10T11:58:35;100455.50;;;19.29;45.14
80308;BME280;69616;43.522;1.348;2023-05-10T12:01:01;100450.69;;;19.62;44.84
80308;BME280;69616;43.522;1.348;2023-05-10T12:03:28;100445.03;;;19.94;44.14
80308;BME280;69616;43.522;1.348;2023-05-10T12:05:54;100441.34;;;20.19;44.16
80308;BME280;69616;43.522;1.348;2023-05-10T12:08:22;100438.81;;;20.36;44.52
80308;BME280;69616;43.522;1.348;2023-05-10T12:10:48;100426.06;;;20.64;45.39
80308;BME280;69616;43.522;1.348;2023-05-10T12:13:14;100427.81;;;20.65;44.76
80308;BME280;69616;43.522;1.348;2023-05-10T12:15:41;100425.34;;;20.60;45.99
80308;BME280;69616;43.522;1.348;2023-05-10T12:18:14;100422.94;;;20.75;45.82
80308;BME280;69616;43.522;1.348;2023-05-10T12:20:40;100411.97;;;20.81;45.27
80308;BME280;69616;43.522;1.348;2023-05-10T12:23:08;100421.59;;;20.64;44.97
80308;BME280;69616;43.522;1.348;2023-05-10T12:25:36;100412.28;;;20.73;45.18
80308;BME280;69616;43.522;1.348;2023-05-10T12:28:07;100425.66;;;20.73;43.04
80308;BME280;69616;43.522;1.348;2023-05-10T12:30:34;100421.75;;;20.82;42.91
80308;BME280;69616;43.522;1.348;2023-05-10T12:33:02;100407.63;;;20.78;42.76
80308;BME280;69616;43.522;1.348;2023-05-10T12:35:31;100413.84;;;21.00;43.10
80308;BME280;69616;43.522;1.348;2023-05-10T12:37:58;100407.50;;;21.21;41.64
80308;BME280;69616;43.522;1.348;2023-05-10T12:40:23;100405.84;;;21.38;41.43
80308;BME280;69616;43.522;1.348;2023-05-10T12:42:49;100405.25;;;21.50;41.45
80308;BME280;69616;43.522;1.348;2023-05-10T12:45:14;100403.88;;;21.61;41.08
80308;BME280;69616;43.522;1.348;2023-05-10T12:47:40;100403.31;;;21.73;41.33
80308;BME280;69616;43.522;1.348;2023-05-10T12:50:06;100393.81;;;21.85;39.81
80308;BME280;69616;43.522;1.348;2023-05-10T12:52:32;100394.44;;;21.90;39.98
80308;BME280;69616;43.522;1.348;2023-05-10T12:54:58;100385.22;;;21.96;39.27
80308;BME280;69616;43.522;1.348;2023-05-10T12:57:24;100385.06;;;21.99;39.41
80308;BME280;69616;43.522;1.348;2023-05-10T12:59:50;100384.38;;;22.13;39.34
80308;BME280;69616;43.522;1.348;2023-05-10T13:02:15;100390.06;;;22.25;39.60
80308;BME280;69616;43.522;1.348;2023-05-10T13:04:43;100383.81;;;22.24;38.64
80308;BME280;69616;43.522;1.348;2023-05-10T13:07:09;100381.38;;;22.37;38.54
80308;BME280;69616;43.522;1.348;2023-05-10T13:09:35;100384.63;;;22.44;37.46
80308;BME280;69616;43.522;1.348;2023-05-10T13:12:00;100385.97;;;22.35;37.64
80308;BME280;69616;43.522;1.348;2023-05-10T13:14:26;100378.00;;;22.33;37.59
80308;BME280;69616;43.522;1.348;2023-05-10T13:16:51;100384.31;;;22.32;37.98
80308;BME280;69616;43.522;1.348;2023-05-10T13:19:17;100380.38;;;22.40;38.73